Date,TemperatureHighF,TemperatureAvgF,TemperatureLowF,DewpointHighF,DewpointAvgF,DewpointLowF,HumidityHigh,HumidityAvg,HumidityLow,PressureMaxIn,PressureMinIn,WindSpeedMaxMPH,WindSpeedAvgMPH,GustSpeedMaxMPH,PrecipitationSumIn
2013-1-1,37.1,29.7,24.8,0.0,0.0,0.0,0,0,100,30.31,30.17,5,0,6,0.00
2013-1-2,40.1,30.0,25.7,0.0,0.0,0.0,0,0,100,30.18,30.01,6,1,6,0.00
2013-1-3,37.1,30.2,23.8,0.0,0.0,0.0,0,0,100,30.01,29.90,6,1,6,0.00
2013-1-4,42.5,39.6,34.9,0.0,0.0,0.0,0,0,100,30.11,29.93,8,1,8,0.00
2013-1-5,44.5,39.7,36.7,0.0,0.0,0.0,0,0,100,30.01,29.87,6,1,6,0.00
2013-1-6,42.8,38.7,33.5,0.0,0.0,0.0,0,0,100,29.97,29.78,9,1,9,0.00
2013-1-7,47.5,42.1,38.5,0.0,0.0,0.0,0,0,100,29.95,29.61,12,2,12,0.00
2013-1-8,50.4,43.0,37.6,0.0,0.0,0.0,0,0,100,29.96,29.46,12,2,12,0.00
2013-1-9,49.3,40.7,35.6,0.0,0.0,0.0,0,0,100,29.74,29.46,14,2,14,0.00
2013-1-10,39.6,32.9,26.8,0.0,0.0,0.0,0,0,100,29.94,29.73,10,0,10,0.00
2013-1-11,36.5,26.8,22.7,0.0,0.0,0.0,0,0,100,30.14,29.94,5,0,5,0.00
2013-1-12,35.1,24.8,20.5,0.0,0.0,0.0,0,0,100,30.26,30.13,7,0,7,0.00
2013-1-13,36.4,25.9,18.5,0.0,0.0,0.0,0,0,100,30.30,30.24,5,0,5,0.00
2013-1-14,33.7,30.3,27.0,0.0,0.0,0.0,0,0,100,30.38,30.26,2,0,2,0.00
2013-1-15,41.4,31.6,26.1,0.0,0.0,0.0,0,0,100,30.51,30.38,4,0,4,0.00
2013-1-16,41.0,28.3,22.5,0.0,0.0,0.0,0,0,100,30.50,30.34,8,1,8,0.00
2013-1-17,42.5,29.2,23.0,0.0,0.0,0.0,0,0,100,30.34,30.10,3,0,3,0.00
2013-1-18,41.4,29.9,23.0,0.0,0.0,0.0,0,0,100,30.16,30.06,11,1,11,0.00
2013-1-19,41.4,29.6,23.8,0.0,0.0,0.0,0,0,100,30.20,30.14,7,1,7,0.00
2013-1-20,43.9,30.8,23.8,0.0,0.0,0.0,0,0,100,30.21,30.09,5,1,5,0.00
2013-1-21,43.9,29.1,21.6,0.0,0.0,0.0,0,0,100,30.09,29.93,6,1,6,0.00
2013-1-22,40.7,30.6,23.0,0.0,0.0,0.0,0,0,100,29.97,29.72,6,1,6,0.00
2013-1-23,41.4,37.3,32.8,0.0,0.0,0.0,0,0,100,29.93,29.62,5,1,5,0.00
2013-1-24,44.5,38.2,33.3,0.0,0.0,0.0,0,0,100,30.01,29.82,8,1,8,0.00
2013-1-25,53.6,40.6,31.1,0.0,0.0,0.0,0,0,100,29.86,29.72,7,1,7,0.00
2013-1-26,38.0,34.4,30.4,0.0,0.0,0.0,0,0,100,29.83,29.67,8,0,8,0.00
2013-1-27,38.0,36.5,35.1,0.0,0.0,0.0,0,0,100,29.85,29.78,5,1,5,0.00
2013-1-28,38.2,34.8,32.6,0.0,0.0,0.0,0,0,100,29.87,29.79,4,0,4,0.00
2013-1-29,42.3,38.7,33.8,0.0,0.0,0.0,0,0,100,30.13,29.86,5,0,5,0.00
2013-1-30,45.5,41.7,38.7,0.0,0.0,0.0,0,0,100,30.18,30.12,2,0,2,0.00
2013-1-31,46.6,43.7,42.3,0.0,0.0,0.0,0,0,100,30.18,30.09,5,0,5,0.00
2013-2-1,49.9,42.5,35.6,0.0,0.0,0.0,0,0,100,30.24,30.15,10,1,10,0.00
2013-2-2,54.2,38.4,30.6,0.0,0.0,0.0,0,0,100,30.22,30.03,8,1,8,0.00
2013-2-3,45.5,40.8,37.3,0.0,0.0,0.0,0,0,100,30.10,30.01,5,1,5,0.00
2013-2-4,52.9,42.9,40.3,0.0,0.0,0.0,0,0,100,30.01,29.65,4,0,4,0.00
2013-2-5,50.6,46.2,41.4,0.0,0.0,0.0,0,0,100,29.72,29.59,10,2,10,0.00
2013-2-6,50.8,45.2,40.7,0.0,0.0,0.0,0,0,100,29.82,29.59,19,2,19,0.00
2013-2-7,52.9,41.9,29.5,0.0,0.0,0.0,0,0,100,30.02,29.59,13,2,13,0.00
2013-2-8,41.8,35.0,28.4,0.0,0.0,0.0,0,0,100,30.11,30.01,4,0,4,0.00
2013-2-9,43.6,37.4,32.0,0.0,0.0,0.0,0,0,100,30.16,30.06,3,0,3,0.00
2013-2-10,49.7,36.7,28.1,0.0,0.0,0.0,0,0,100,30.18,30.13,9,1,9,0.00
2013-2-11,44.5,39.3,36.2,0.0,0.0,0.0,0,0,100,30.16,30.12,4,0,4,0.00
2013-2-12,48.8,42.4,39.4,0.0,0.0,0.0,0,0,100,30.21,30.06,8,1,8,0.00
2013-2-13,46.1,42.4,36.7,0.0,0.0,0.0,0,0,100,30.29,30.08,7,1,7,0.00
2013-2-14,49.3,42.4,36.9,0.0,0.0,0.0,0,0,100,30.38,30.27,5,0,5,0.00
2013-2-15,60.1,42.0,34.4,0.0,0.0,0.0,0,0,100,30.38,29.96,11,1,11,0.00
2013-2-16,50.0,42.3,37.3,0.0,0.0,0.0,0,0,100,29.97,29.89,7,2,7,0.00
2013-2-17,45.7,38.9,33.7,0.0,0.0,0.0,0,0,100,30.03,29.92,4,0,4,0.00
2013-2-18,42.7,34.5,32.2,0.0,0.0,0.0,0,0,100,29.92,29.57,4,0,4,0.00
2013-2-19,53.8,37.8,29.2,0.0,0.0,0.0,0,0,100,29.80,29.56,10,1,10,0.00
2013-2-20,44.5,33.7,27.4,0.0,0.0,0.0,0,0,100,29.83,29.77,5,0,8,0.00
2013-2-21,40.1,36.8,31.3,0.0,0.0,0.0,0,0,100,29.85,29.78,6,1,6,0.00
2013-2-22,42.5,39.9,36.7,0.0,0.0,0.0,0,0,100,29.81,29.44,10,2,10,0.00
2013-2-23,50.0,39.5,33.3,0.0,0.0,0.0,0,0,100,30.13,29.65,7,1,7,0.00
2013-2-24,48.6,42.9,36.4,0.0,0.0,0.0,0,0,100,30.16,29.68,11,2,11,0.00
2013-2-25,45.9,41.0,36.4,0.0,0.0,0.0,0,0,100,30.07,29.64,12,3,12,0.00
2013-2-26,49.0,41.5,35.5,0.0,0.0,0.0,0,0,100,30.12,29.94,10,1,10,0.00
2013-2-27,49.3,41.1,36.4,0.0,0.0,0.0,0,0,100,30.10,29.95,7,1,7,0.00
2013-2-28,49.5,41.5,36.4,0.0,0.0,0.0,0,0,100,30.08,29.97,9,1,9,0.00
2013-3-1,58.3,53.3,47.2,0.0,0.0,0.0,0,0,100,30.10,30.02,12,3,12,0.00
2013-3-2,57.1,49.7,37.8,0.0,0.0,0.0,0,0,100,30.02,29.79,12,3,12,0.00
2013-3-3,51.8,37.1,29.0,0.0,0.0,0.0,0,0,100,30.12,29.96,5,1,5,0.00
2013-3-4,56.5,38.2,27.2,0.0,0.0,0.0,0,0,100,30.11,29.77,13,1,13,0.00
2013-3-5,51.8,42.3,34.9,0.0,0.0,0.0,0,0,100,29.78,29.55,12,1,12,0.00
2013-3-6,42.3,38.9,36.0,0.0,0.0,0.0,0,0,100,29.68,29.40,8,1,8,0.00
2013-3-7,48.4,40.5,35.5,0.0,0.0,0.0,0,0,100,29.92,29.68,5,0,5,0.00
2013-3-8,56.2,39.6,31.3,0.0,0.0,0.0,0,0,100,30.04,29.88,10,1,10,0.00
2013-3-9,59.4,39.3,28.3,0.0,0.0,0.0,0,0,100,30.29,30.04,7,1,7,0.00
2013-3-10,47.5,40.8,32.8,0.0,0.0,0.0,0,0,100,30.28,30.21,4,1,4,0.00
2013-3-11,55.8,43.1,31.9,0.0,0.0,0.0,0,0,100,30.24,29.94,7,1,7,0.00
2013-3-12,50.2,47.4,42.1,0.0,0.0,0.0,0,0,100,29.94,29.81,10,2,10,0.00
2013-3-13,53.6,48.6,45.0,0.0,0.0,0.0,0,0,100,29.97,29.88,9,1,9,0.00
2013-3-14,56.5,48.5,45.4,0.0,0.0,0.0,0,0,100,29.95,29.81,8,1,8,0.00
2013-3-15,62.6,49.4,40.9,0.0,0.0,0.0,0,0,100,30.00,29.91,6,1,6,0.00
2013-3-16,47.0,43.5,38.5,0.0,0.0,0.0,0,0,100,29.92,29.65,6,2,6,0.00
2013-3-17,48.6,41.8,36.9,0.0,0.0,0.0,0,0,100,29.96,29.74,7,2,7,0.00
2013-3-18,54.9,39.5,30.8,0.0,0.0,0.0,0,0,100,30.07,29.88,6,1,6,0.00
2013-3-19,55.8,41.5,29.9,0.0,0.0,0.0,0,0,100,30.07,29.38,12,2,12,0.00
2013-3-20,53.6,46.3,40.7,0.0,0.0,0.0,0,0,100,29.78,29.14,11,3,11,0.00
2013-3-21,48.1,40.0,33.3,0.0,0.0,0.0,0,0,100,30.00,29.77,9,2,9,0.00
2013-3-22,45.4,35.3,29.3,0.0,0.0,0.0,0,0,100,30.19,29.99,6,1,6,0.00
2013-3-23,52.0,36.3,28.4,0.0,0.0,0.0,0,0,100,30.21,30.12,8,1,8,0.00
2013-3-24,59.4,40.0,29.0,0.0,0.0,0.0,0,0,100,30.13,29.95,9,1,9,0.00
2013-3-25,66.8,45.5,33.5,0.0,0.0,0.0,0,0,100,29.97,29.76,10,1,10,0.00
2013-3-26,64.8,45.6,31.7,0.0,0.0,0.0,0,0,100,29.83,29.78,11,1,11,0.00
2013-3-27,62.3,46.7,33.5,0.0,0.0,0.0,0,0,100,29.82,29.74,6,1,6,0.00
2013-3-28,67.1,49.8,35.6,0.0,0.0,0.0,0,0,100,29.97,29.82,6,1,6,0.00
2013-3-29,67.7,49.6,37.1,0.0,0.0,0.0,0,0,100,30.08,29.97,7,1,7,0.00
2013-3-30,72.4,50.2,34.6,0.0,0.0,0.0,0,0,100,30.10,29.92,12,2,12,0.00
2013-3-31,75.8,52.4,34.9,0.0,0.0,0.0,0,0,100,29.92,29.73,10,1,10,0.00
2013-4-1,64.1,50.1,37.1,0.0,0.0,0.0,0,0,100,29.95,29.78,11,2,11,0.00
2013-4-2,59.2,51.7,48.1,0.0,0.0,0.0,0,0,100,30.00,29.95,8,2,8,0.00
2013-4-3,66.4,53.4,45.9,0.0,0.0,0.0,0,0,100,30.00,29.79,10,1,10,0.00
2013-4-4,58.3,52.1,45.9,0.0,0.0,0.0,0,0,100,29.79,29.41,10,1,10,0.00
2013-4-5,59.8,53.0,46.8,0.0,0.0,0.0,0,0,100,29.64,29.47,11,3,11,0.00
2013-4-6,56.5,47.4,41.6,0.0,0.0,0.0,0,0,100,29.71,29.48,8,2,8,0.00
2013-4-7,46.6,42.3,40.5,0.0,0.0,0.0,0,0,100,29.68,29.34,8,0,8,0.00
2013-4-8,56.0,45.4,41.4,0.0,0.0,0.0,0,0,100,30.08,29.68,8,1,8,0.00
2013-4-9,55.6,47.9,37.8,0.0,0.0,0.0,0,0,100,30.14,29.95,7,1,7,0.00
2013-4-10,55.1,50.4,45.2,0.0,0.0,0.0,0,0,100,30.03,29.69,12,3,12,0.00
2013-4-11,61.6,46.5,35.6,0.0,0.0,0.0,0,0,100,30.09,30.00,8,2,8,0.00
2013-4-12,46.8,39.9,33.3,0.0,0.0,0.0,0,0,100,30.00,29.48,8,1,8,0.00
2013-4-13,51.5,40.0,33.1,0.0,0.0,0.0,0,0,100,29.79,29.51,11,1,11,0.00
2013-4-14,56.9,42.1,34.7,0.0,0.0,0.0,0,0,100,29.82,29.73,6,1,6,0.00
2013-4-15,59.2,44.6,36.9,0.0,0.0,0.0,0,0,100,29.99,29.75,8,1,8,0.00
2013-4-16,61.9,44.7,30.6,0.0,0.0,0.0,0,0,100,30.21,29.99,8,2,8,0.00
2013-4-17,61.0,47.3,33.5,0.0,0.0,0.0,0,0,100,30.24,30.20,7,2,7,0.00
2013-4-18,52.6,46.4,42.5,0.0,0.0,0.0,0,0,100,30.25,29.99,7,1,7,0.00
2013-4-19,52.2,47.8,43.7,0.0,0.0,0.0,0,0,100,30.00,29.86,8,1,8,0.00
2013-4-20,53.5,48.2,45.4,0.0,0.0,0.0,0,0,100,30.05,29.97,9,2,9,0.00
2013-4-21,54.4,45.0,35.3,0.0,0.0,0.0,0,0,100,30.21,30.01,12,2,12,0.00
2013-4-22,65.0,46.4,31.5,0.0,0.0,0.0,0,0,100,30.34,30.20,11,1,11,0.00
2013-4-23,67.7,48.0,33.1,0.0,0.0,0.0,0,0,100,30.25,30.07,7,1,7,0.00
2013-4-24,72.2,52.1,33.8,0.0,0.0,0.0,0,0,100,30.15,29.88,8,1,8,0.00
2013-4-25,74.5,54.0,36.4,0.0,0.0,0.0,0,0,100,29.96,29.86,9,2,9,0.00
2013-4-26,67.7,54.4,40.1,0.0,0.0,0.0,0,0,100,30.05,29.96,7,2,7,0.00
2013-4-27,54.7,49.9,45.7,0.0,0.0,0.0,0,0,100,30.01,29.93,5,1,5,0.00
2013-4-28,56.0,47.7,41.4,0.0,0.0,0.0,0,0,100,30.02,29.73,7,1,7,0.00
2013-4-29,55.8,47.0,42.1,0.0,0.0,0.0,0,0,100,29.94,29.72,16,2,16,0.00
2013-4-30,58.5,44.4,34.6,0.0,0.0,0.0,0,0,100,30.26,29.94,8,1,8,0.00
2013-5-1,67.3,48.1,31.1,0.0,0.0,0.0,0,0,100,30.39,30.26,14,1,14,0.00
2013-5-2,69.3,53.2,37.4,0.0,0.0,0.0,0,0,100,30.38,30.19,10,2,10,0.00
2013-5-3,76.0,55.6,38.0,0.0,0.0,0.0,0,0,100,30.22,30.06,17,2,17,0.00
2013-5-4,83.0,61.7,41.4,0.0,0.0,0.0,0,0,100,30.09,29.85,10,2,10,0.00
2013-5-5,84.8,64.4,43.9,0.0,0.0,0.0,0,0,100,29.85,29.61,12,2,12,0.00
2013-5-6,86.9,66.1,47.0,0.0,0.0,0.0,0,0,100,29.69,29.59,8,2,8,0.00
2013-5-7,73.4,59.3,46.4,0.0,0.0,0.0,0,0,100,29.81,29.64,8,2,8,0.00
2013-5-8,67.9,56.6,48.8,0.0,0.0,0.0,0,0,100,29.97,29.81,8,2,8,0.00
2013-5-9,75.1,57.0,45.0,0.0,0.0,0.0,0,0,100,30.04,29.93,8,2,8,0.00
2013-5-10,73.1,54.1,43.6,0.0,0.0,0.0,0,0,100,30.03,29.93,6,1,6,0.00
2013-5-11,81.5,63.7,50.4,0.0,0.0,0.0,0,0,100,30.00,29.80,9,1,9,0.00
2013-5-12,70.2,60.6,54.7,0.0,0.0,0.0,0,0,100,29.89,29.81,10,1,10,0.00
2013-5-13,66.4,55.5,45.9,0.0,0.0,0.0,0,0,100,30.00,29.71,11,2,11,0.00
2013-5-14,66.8,52.8,43.2,0.0,0.0,0.0,0,0,100,30.04,29.94,7,1,7,0.00
2013-5-15,68.8,54.6,41.8,0.0,0.0,0.0,0,0,100,29.95,29.82,10,1,11,0.00
2013-5-16,74.2,57.8,50.0,0.0,0.0,0.0,0,0,100,29.85,29.69,13,1,13,0.00
2013-5-17,61.2,53.8,48.1,0.0,0.0,0.0,0,0,100,29.87,29.75,7,1,7,0.00
2013-5-18,62.6,54.7,49.9,0.0,0.0,0.0,0,0,100,30.09,29.87,6,1,6,0.00
2013-5-19,64.3,54.7,45.4,0.0,0.0,0.0,0,0,100,30.21,30.09,7,1,7,0.00
2013-5-20,70.0,54.9,39.4,0.0,0.0,0.0,0,0,100,30.18,29.72,6,2,6,0.00
2013-5-21,53.6,48.9,45.0,0.0,0.0,0.0,0,0,100,29.72,29.60,7,1,7,0.00
2013-5-22,58.1,48.6,44.3,0.0,0.0,0.0,0,0,100,29.77,29.65,5,1,5,0.00
2013-5-23,61.6,50.1,40.7,0.0,0.0,0.0,0,0,100,29.82,29.74,9,1,9,0.00
2013-5-24,65.5,51.3,38.5,0.0,0.0,0.0,0,0,100,29.86,29.79,8,2,8,0.00
2013-5-25,67.0,54.4,46.8,0.0,0.0,0.0,0,0,100,29.85,29.81,8,1,8,0.00
2013-5-26,59.8,52.0,46.4,0.0,0.0,0.0,0,0,100,29.81,29.77,7,1,7,0.00
2013-5-27,63.2,54.8,49.0,0.0,0.0,0.0,0,0,100,29.77,29.52,6,0,6,0.00
2013-5-28,64.1,55.6,49.3,0.0,0.0,0.0,0,0,100,29.69,29.56,7,1,7,0.00
2013-5-29,56.5,51.6,47.7,0.0,0.0,0.0,0,0,100,29.77,29.50,5,1,5,0.00
2013-5-30,63.4,52.5,47.0,0.0,0.0,0.0,0,0,100,30.05,29.77,9,1,9,0.00
2013-5-31,68.9,54.3,45.0,0.0,0.0,0.0,0,0,100,30.15,30.05,6,1,6,0.00
2013-6-1,67.9,56.8,44.3,0.0,0.0,0.0,0,0,100,30.08,29.88,11,2,11,0.00
2013-6-2,71.8,58.5,47.9,0.0,0.0,0.0,0,0,100,29.90,29.85,10,2,10,0.00
2013-6-3,73.4,59.0,43.4,0.0,0.0,0.0,0,0,100,29.94,29.88,8,2,8,0.00
2013-6-4,82.3,63.2,44.5,0.0,0.0,0.0,0,0,100,29.96,29.85,7,2,7,0.00
2013-6-5,77.4,61.9,47.2,0.0,0.0,0.0,0,0,100,29.91,29.86,8,2,8,0.00
2013-6-6,78.3,64.4,48.4,0.0,0.0,0.0,0,0,100,29.87,29.82,8,2,8,0.00
2013-6-7,69.1,60.5,54.4,0.0,0.0,0.0,0,0,100,29.98,29.83,7,2,7,0.00
2013-6-8,67.9,57.6,48.6,0.0,0.0,0.0,0,0,100,30.00,29.92,8,2,8,0.00
2013-6-9,69.1,58.0,47.5,0.0,0.0,0.0,0,0,100,29.93,29.85,9,3,9,0.00
2013-6-10,70.6,56.9,39.2,0.0,0.0,0.0,0,0,100,29.87,29.70,8,2,8,0.00
2013-6-11,68.8,56.1,50.4,0.0,0.0,0.0,0,0,100,29.91,29.74,11,1,11,0.00
2013-6-12,63.7,55.3,46.4,0.0,0.0,0.0,0,0,100,29.96,29.91,6,1,6,0.00
2013-6-13,70.9,56.2,45.9,0.0,0.0,0.0,0,0,100,30.03,29.96,7,1,7,0.00
2013-6-14,71.6,56.4,48.2,0.0,0.0,0.0,0,0,100,30.05,29.90,8,1,8,0.00
2013-6-15,84.1,62.1,42.7,0.0,0.0,0.0,0,0,100,29.90,29.73,10,2,10,0.00
2013-6-16,73.6,61.5,49.3,0.0,0.0,0.0,0,0,100,29.91,29.81,8,2,8,0.00
2013-6-17,79.4,63.0,48.4,0.0,0.0,0.0,0,0,100,29.91,29.71,7,2,7,0.00
2013-6-18,76.7,60.6,51.3,0.0,0.0,0.0,0,0,100,29.80,29.71,7,1,7,0.00
2013-6-19,66.8,58.8,52.4,0.0,0.0,0.0,0,0,100,29.81,29.72,7,2,7,0.00
2013-6-20,56.9,52.2,50.9,0.0,0.0,0.0,0,0,100,29.92,29.74,8,1,8,0.00
2013-6-21,67.3,57.5,50.8,0.0,0.0,0.0,0,0,100,29.99,29.91,5,1,5,0.00
2013-6-22,79.6,61.6,47.5,0.0,0.0,0.0,0,0,100,29.95,29.71,14,1,14,0.00
2013-6-23,73.1,62.2,51.1,0.0,0.0,0.0,0,0,100,29.71,29.43,6,1,6,0.00
2013-6-24,67.9,60.7,55.4,0.0,0.0,0.0,0,0,100,29.53,29.38,9,1,9,0.00
2013-6-25,78.3,62.2,53.6,0.0,0.0,0.0,0,0,100,29.67,29.50,10,1,10,0.00
2013-6-26,74.3,62.4,52.2,0.0,0.0,0.0,0,0,100,29.90,29.66,8,1,8,0.00
2013-6-27,73.4,62.9,56.5,0.0,0.0,0.0,0,0,100,30.03,29.87,8,1,8,0.00
2013-6-28,87.1,68.1,56.5,0.0,0.0,0.0,0,0,100,30.04,29.87,6,1,6,0.00
2013-6-29,85.1,71.5,59.6,0.0,0.0,0.0,0,0,100,29.93,29.82,8,2,8,0.00
2013-6-30,98.1,75.1,56.2,0.0,0.0,0.0,0,0,100,29.85,29.68,8,2,8,0.00
2013-7-1,97.6,74.2,58.9,0.0,0.0,0.0,0,0,100,29.85,29.73,5,0,5,0.00
2013-7-2,81.4,68.8,59.4,0.0,0.0,0.0,0,0,100,29.92,29.85,0,0,0,0.00
2013-7-3,80.3,65.5,54.5,0.0,0.0,0.0,0,0,100,29.98,29.87,0,0,0,0.00
2013-7-4,75.1,63.8,56.3,0.0,0.0,0.0,0,0,100,29.94,29.85,0,0,0,0.00
2013-7-5,78.1,63.3,50.8,0.0,0.0,0.0,0,0,100,29.87,29.77,0,0,0,0.00
2013-7-6,81.9,66.1,51.8,0.0,0.0,0.0,0,0,100,29.82,29.69,0,0,0,0.00
2013-7-7,81.7,67.4,54.5,0.0,0.0,0.0,0,0,100,29.77,29.69,0,0,0,0.00
2013-7-8,82.6,66.6,54.2,0.0,0.0,0.0,0,0,100,29.93,29.76,0,0,0,0.00
2013-7-9,87.1,69.1,54.0,0.0,0.0,0.0,0,0,100,29.93,29.82,0,0,0,0.00
2013-7-10,74.3,64.5,56.5,0.0,0.0,0.0,0,0,100,29.88,29.79,0,0,0,0.00
2013-7-11,71.3,61.8,53.8,0.0,0.0,0.0,0,0,100,29.90,29.81,0,0,0,0.00
2013-7-12,73.3,60.3,47.9,0.0,0.0,0.0,0,0,100,29.93,29.83,0,0,0,0.00
2013-7-13,78.8,62.6,47.9,0.0,0.0,0.0,0,0,100,30.02,29.93,0,0,0,0.00
2013-7-14,85.3,64.1,48.8,0.0,0.0,0.0,0,0,100,29.97,29.83,0,0,0,0.00
2013-7-15,83.5,65.4,48.8,0.0,0.0,0.0,0,0,100,29.89,29.74,0,0,0,0.00
2013-7-16,89.8,70.2,52.6,0.0,0.0,0.0,0,0,100,29.75,29.65,0,0,0,0.00
2013-7-17,77.8,69.6,62.3,0.0,0.0,0.0,0,0,100,30.02,29.69,0,0,0,0.00
2013-7-18,80.8,68.0,60.1,0.0,0.0,0.0,0,0,100,30.05,29.95,0,0,0,0.00
2013-7-19,82.4,66.2,54.2,0.0,0.0,0.0,0,0,100,29.99,29.86,0,0,0,0.00
2013-7-20,79.2,64.5,54.9,0.0,0.0,0.0,0,0,100,29.91,29.79,0,0,0,0.00
2013-7-21,78.3,63.7,52.6,0.0,0.0,0.0,0,0,100,29.80,29.73,0,0,0,0.00
2013-7-22,81.7,66.1,55.3,0.0,0.0,0.0,0,0,100,29.88,29.77,0,0,0,0.00
2013-7-23,86.6,68.1,53.5,0.0,0.0,0.0,0,0,100,29.90,29.80,0,0,0,0.00
2013-7-24,86.2,68.1,52.9,0.0,0.0,0.0,0,0,100,29.89,29.82,0,0,0,0.00
2013-7-25,84.2,65.9,52.0,0.0,0.0,0.0,0,0,100,29.93,29.86,0,0,0,0.00
2013-7-26,82.6,65.6,49.9,0.0,0.0,0.0,0,0,100,29.97,29.89,0,0,0,0.00
2013-7-27,80.5,64.0,50.0,0.0,0.0,0.0,0,0,100,29.98,29.82,0,0,0,0.00
2013-7-28,65.3,53.3,49.3,0.0,0.0,0.0,0,0,100,29.84,29.82,0,0,0,0.00
2013-7-29,78.1,65.7,55.6,0.0,0.0,0.0,0,0,100,29.84,29.76,0,0,0,0.00
2013-7-30,78.8,64.9,52.9,0.0,0.0,0.0,0,0,100,29.95,29.84,0,0,0,0.00
2013-7-31,77.2,64.0,54.4,0.0,0.0,0.0,0,0,100,29.95,29.82,0,0,0,0.00
2013-8-1,65.9,60.5,54.4,0.0,0.0,0.0,0,0,100,29.87,29.82,0,0,0,0.00
2013-8-2,64.1,60.0,56.2,0.0,0.0,0.0,0,0,100,29.96,29.87,0,0,0,0.00
2013-8-3,76.7,64.7,56.3,0.0,0.0,0.0,0,0,100,29.96,29.88,0,0,0,0.00
2013-8-4,83.9,67.8,56.7,0.0,0.0,0.0,0,0,100,29.90,29.78,0,0,0,0.00
2013-8-5,85.3,68.0,55.8,0.0,0.0,0.0,0,0,100,29.84,29.76,0,0,0,0.00
2013-8-6,84.1,65.9,51.7,0.0,0.0,0.0,0,0,100,29.83,29.75,0,0,0,0.00
2013-8-7,85.3,67.6,53.8,0.0,0.0,0.0,0,0,100,29.83,29.77,0,0,0,0.00
2013-8-8,82.4,69.6,60.5,0.0,0.0,0.0,0,0,100,29.86,29.77,0,0,0,0.00
2013-8-9,85.7,67.9,53.3,0.0,0.0,0.0,0,0,100,29.79,29.65,0,0,0,0.00
2013-8-10,82.1,68.5,59.6,0.0,0.0,0.0,0,0,100,29.84,29.70,0,0,0,0.00
2013-8-11,73.6,63.9,56.9,0.0,0.0,0.0,0,0,100,29.89,29.82,0,0,0,0.00
2013-8-12,79.4,65.4,57.1,0.0,0.0,0.0,0,0,100,29.89,29.83,0,0,0,0.00
2013-8-13,81.2,66.2,54.9,0.0,0.0,0.0,0,0,100,29.92,29.77,0,0,0,0.00
2013-8-14,80.5,65.0,53.8,0.0,0.0,0.0,0,0,100,29.80,29.72,0,0,0,0.00
2013-8-15,72.9,65.4,61.4,0.0,0.0,0.0,0,0,100,29.82,29.74,0,0,0,0.00
2013-8-16,70.7,70.7,70.7,0.0,0.0,0.0,0,0,100,29.79,29.79,0,0,0,0.00
2013-8-20,58.7,57.0,55.3,0.0,0.0,0.0,0,0,100,29.93,29.93,0,0,0,0.00
2013-8-21,82.8,64.3,49.1,0.0,0.0,0.0,0,0,100,29.94,29.76,0,0,0,0.00
2013-8-22,84.4,68.5,52.2,0.0,0.0,0.0,0,0,100,29.80,29.62,0,0,0,0.00
2013-8-23,76.0,66.1,58.3,0.0,0.0,0.0,0,0,100,29.71,29.65,0,0,0,0.00
2013-8-24,74.2,63.5,55.4,0.0,0.0,0.0,0,0,100,29.75,29.69,0,0,0,0.00
2013-8-25,78.1,62.5,50.4,0.0,0.0,0.0,0,0,100,29.77,29.68,0,0,0,0.00
2013-8-26,78.1,65.3,57.2,0.0,0.0,0.0,0,0,100,29.76,29.66,0,0,0,0.00
2013-8-27,79.7,67.7,58.3,0.0,0.0,0.0,0,0,100,29.77,29.62,0,0,0,0.00
2013-8-28,78.5,67.0,60.1,0.0,0.0,0.0,0,0,100,29.73,29.65,0,0,0,0.00
2013-8-29,76.0,67.1,62.6,0.0,0.0,0.0,0,0,100,29.79,29.67,0,0,0,0.00
2013-8-30,78.1,65.5,57.2,0.0,0.0,0.0,0,0,100,29.98,29.78,0,0,0,0.00
2013-8-31,82.6,64.2,51.1,0.0,0.0,0.0,0,0,100,29.93,29.67,0,0,0,0.00
2013-9-1,81.4,65.6,53.3,0.0,0.0,0.0,0,0,100,29.71,29.62,0,0,0,0.00
2013-9-2,81.9,66.2,56.3,0.0,0.0,0.0,0,0,100,29.77,29.68,0,0,0,0.00
2013-9-3,71.3,62.2,57.6,0.0,0.0,0.0,0,0,100,29.86,29.76,0,0,0,0.00
2013-9-4,73.1,62.3,55.1,0.0,0.0,0.0,0,0,100,29.88,29.83,0,0,0,0.00
2013-9-5,68.4,60.2,54.0,0.0,0.0,0.0,0,0,100,29.88,29.73,0,0,0,0.00
2013-9-6,70.2,62.6,59.0,0.0,0.0,0.0,0,0,100,29.92,29.73,0,0,0,0.00
2013-9-7,75.4,64.8,59.6,0.0,0.0,0.0,0,0,100,29.92,29.84,0,0,0,0.00
2013-9-8,77.6,63.5,55.3,0.0,0.0,0.0,0,0,100,29.92,29.85,0,0,0,0.00
2013-9-9,78.5,63.6,55.3,0.0,0.0,0.0,0,0,100,29.89,29.80,0,0,0,0.00
2013-9-10,81.4,64.0,52.4,0.0,0.0,0.0,0,0,100,29.83,29.73,0,0,0,0.00
2013-9-11,88.2,68.3,55.4,0.0,0.0,0.0,0,0,100,29.79,29.71,0,0,0,0.00
2013-9-12,81.2,66.3,55.4,0.0,0.0,0.0,0,0,100,29.81,29.71,0,0,0,0.00
2013-9-13,68.0,61.5,56.2,0.0,0.0,0.0,0,0,100,29.79,29.69,0,0,0,0.00
2013-9-14,75.2,63.9,59.4,0.0,0.0,0.0,0,0,100,29.72,29.58,0,0,0,0.00
2013-9-15,69.5,61.4,58.7,0.0,0.0,0.0,0,0,100,29.63,29.53,0,0,0,0.00
2013-9-16,63.0,59.5,54.9,0.0,0.0,0.0,0,0,100,29.74,29.61,0,0,0,0.00
2013-9-17,63.2,57.6,53.8,0.0,0.0,0.0,0,0,100,29.74,29.66,0,0,0,0.00
2013-9-18,67.9,57.7,50.2,0.0,0.0,0.0,0,0,100,29.90,29.74,0,0,0,0.00
2013-9-19,74.3,57.7,47.9,0.0,0.0,0.0,0,0,100,29.89,29.58,0,0,0,0.00
2013-9-20,75.6,59.8,46.6,0.0,0.0,0.0,0,0,100,29.58,29.39,0,0,0,0.00
2013-9-21,67.1,59.7,55.4,0.0,0.0,0.0,0,0,100,29.54,29.46,0,0,0,0.00
2013-9-22,58.9,55.4,53.6,0.0,0.0,0.0,0,0,100,29.51,29.36,0,0,0,0.00
2013-9-23,58.0,52.9,45.9,0.0,0.0,0.0,0,0,100,29.78,29.50,0,0,0,0.00
2013-9-24,63.2,51.4,45.2,0.0,0.0,0.0,0,0,100,29.78,29.64,0,0,0,0.00
2013-9-25,64.6,52.5,44.5,0.0,0.0,0.0,0,0,100,29.84,29.68,0,0,0,0.00
2013-9-26,64.1,49.3,40.0,0.0,0.0,0.0,0,0,100,29.94,29.84,0,0,0,0.00
2013-9-27,52.2,49.0,44.5,0.0,0.0,0.0,0,0,100,29.92,29.63,0,0,0,0.00
2013-9-28,58.1,52.7,48.6,0.0,0.0,0.0,0,0,100,29.64,29.10,0,0,0,0.00
2013-9-29,55.4,53.0,50.0,0.0,0.0,0.0,0,0,100,29.33,28.93,0,0,0,0.00
2013-9-30,53.3,49.5,47.3,0.0,0.0,0.0,0,0,100,29.70,29.14,0,0,0,0.00
2013-10-1,57.6,49.5,45.7,0.0,0.0,0.0,0,0,100,29.91,29.69,0,0,0,0.00
2013-10-2,51.7,48.4,45.0,0.0,0.0,0.0,0,0,100,30.00,29.87,0,0,0,0.00
2013-10-3,58.1,47.4,41.6,0.0,0.0,0.0,0,0,100,30.28,30.00,0,0,0,0.00
2013-10-4,63.4,48.6,36.9,0.0,0.0,0.0,0,0,100,30.30,30.15,0,0,0,0.00
2013-10-5,68.0,54.6,48.8,0.0,0.0,0.0,0,0,100,30.17,29.95,0,0,0,0.00
2013-10-6,74.3,56.4,42.5,0.0,0.0,0.0,0,0,100,29.95,29.64,0,0,0,0.00
2013-10-7,61.2,53.1,49.7,0.0,0.0,0.0,0,0,100,29.78,29.65,0,0,0,0.00
2013-10-8,56.7,48.7,40.3,0.0,0.0,0.0,0,0,100,29.90,29.76,0,0,0,0.00
2013-10-9,58.0,45.0,35.1,0.0,0.0,0.0,0,0,100,29.95,29.76,0,0,0,0.00
2013-10-10,54.7,47.3,40.9,0.0,0.0,0.0,0,0,100,29.89,29.74,0,0,0,0.00
2013-10-11,56.0,45.1,35.1,0.0,0.0,0.0,0,0,100,29.95,29.88,0,0,0,0.00
2013-10-12,58.9,49.7,42.8,0.0,0.0,0.0,0,0,100,30.03,29.88,0,0,0,0.00
2013-10-13,58.0,44.4,35.6,0.0,0.0,0.0,0,0,100,30.18,30.03,0,0,0,0.00
2013-10-14,59.8,44.0,33.8,0.0,0.0,0.0,0,0,100,30.23,30.17,0,0,0,0.00
2013-10-15,62.5,46.8,36.4,0.0,0.0,0.0,0,0,100,30.20,29.99,0,0,0,0.00
2013-10-16,57.6,47.6,42.3,0.0,0.0,0.0,0,0,100,30.01,29.95,0,0,0,0.00
2013-10-17,61.6,48.6,41.8,0.0,0.0,0.0,0,0,100,30.09,30.01,0,0,0,0.00
2013-10-18,62.5,46.0,36.4,0.0,0.0,0.0,0,0,100,30.07,29.96,0,0,0,0.00
2013-10-19,54.7,44.2,36.2,0.0,0.0,0.0,0,0,100,30.02,29.95,0,0,0,0.00
2013-10-20,51.5,46.3,41.9,0.0,0.0,0.0,0,0,100,30.02,29.96,0,0,0,0.00
2013-10-21,57.4,47.2,42.8,0.0,0.0,0.0,0,0,100,29.98,29.91,0,0,0,0.00
2013-10-22,60.5,47.3,40.3,0.0,0.0,0.0,0,0,100,29.94,29.85,0,0,0,0.00
2013-10-23,61.7,46.3,36.7,0.0,0.0,0.0,0,0,100,29.85,29.78,0,0,0,0.00
2013-10-24,61.7,46.1,36.7,0.0,0.0,0.0,0,0,100,29.92,29.81,0,0,0,0.00
2013-10-25,52.7,48.1,45.0,0.0,0.0,0.0,0,0,100,30.13,29.92,0,0,0,0.00
2013-10-26,55.8,49.1,46.6,0.0,0.0,0.0,0,0,100,30.15,29.98,0,0,0,0.00
2013-10-27,58.7,50.4,45.5,0.0,0.0,0.0,0,0,100,29.99,29.71,0,0,0,0.00
2013-10-28,40.9,38.9,37.4,0.0,0.0,0.0,0,0,100,29.78,29.76,0,0,0,0.00
2013-10-29,55.4,40.1,32.0,0.0,0.0,0.0,0,0,100,29.84,29.77,0,0,0,0.00
2013-10-30,56.0,43.7,33.5,0.0,0.0,0.0,0,0,100,29.92,29.84,0,0,0,0.00
2013-10-31,52.0,48.5,46.1,0.0,0.0,0.0,0,0,100,30.06,29.88,0,0,0,0.00
2013-11-1,53.6,50.0,48.2,0.0,0.0,0.0,0,0,100,30.07,29.64,0,0,0,0.00
2013-11-2,53.3,46.1,41.8,0.0,0.0,0.0,0,0,100,29.67,29.20,0,0,0,0.00
2013-11-3,48.6,40.8,34.6,0.0,0.0,0.0,0,0,100,29.91,29.67,0,0,0,0.00
2013-11-5,44.1,42.7,40.1,0.0,0.0,0.0,0,0,100,30.06,29.84,0,0,0,0.00
2013-11-6,49.1,43.2,41.0,0.0,0.0,0.0,0,0,100,30.12,29.77,0,0,0,0.00
2013-11-7,53.3,48.5,45.9,0.0,0.0,0.0,0,0,100,29.77,29.45,0,0,0,0.00
2013-11-8,52.0,46.5,42.1,0.0,0.0,0.0,0,0,100,29.95,29.74,0,0,0,0.00
2013-11-9,48.2,42.3,37.8,0.0,0.0,0.0,0,0,100,29.95,29.88,0,0,0,0.00
2013-11-10,47.5,44.0,40.9,0.0,0.0,0.0,0,0,100,29.97,29.91,0,0,0,0.00
2013-11-11,54.7,46.0,40.3,0.0,0.0,0.0,0,0,100,29.96,29.80,0,0,0,0.00
2013-11-12,54.5,49.3,44.5,0.0,0.0,0.0,0,0,100,30.11,29.80,0,0,0,0.00
2013-11-13,52.2,49.3,47.2,0.0,0.0,0.0,0,0,100,30.21,30.10,0,0,0,0.00
2013-11-14,47.7,44.6,38.9,0.0,0.0,0.0,0,0,100,30.10,29.84,0,0,0,0.00
2013-11-15,43.6,41.3,39.2,0.0,0.0,0.0,0,0,100,29.84,29.09,0,0,0,0.00
2013-11-16,44.8,41.9,39.6,0.0,0.0,0.0,0,0,100,29.53,29.13,0,0,0,0.00
2013-11-17,45.4,42.2,38.2,0.0,0.0,0.0,0,0,100,29.67,29.53,0,0,0,0.00
2013-11-18,48.2,44.3,41.6,0.0,0.0,0.0,0,0,100,29.67,29.31,0,0,0,0.00
2013-11-19,48.2,40.3,32.0,0.0,0.0,0.0,0,0,100,29.87,29.31,0,0,0,0.00
2013-11-20,39.2,31.1,27.7,0.0,0.0,0.0,0,0,100,30.31,29.87,0,0,0,0.00
2013-11-21,37.4,29.0,24.1,0.0,0.0,0.0,0,0,100,30.46,30.31,0,0,0,0.00
2013-11-22,38.2,30.3,25.4,0.0,0.0,0.0,0,0,100,30.45,30.25,0,0,0,0.00
2013-11-23,41.4,32.8,27.7,0.0,0.0,0.0,0,0,100,30.25,30.00,0,0,0,0.00
2013-11-24,40.7,33.4,28.6,0.0,0.0,0.0,0,0,100,30.05,29.96,0,0,0,0.00
2013-11-25,45.5,35.9,30.4,0.0,0.0,0.0,0,0,100,30.10,30.05,0,0,0,0.00
2013-11-26,44.6,36.0,29.9,0.0,0.0,0.0,0,0,100,30.05,29.90,0,0,0,0.00
2013-11-27,52.4,40.9,34.0,0.0,0.0,0.0,0,0,100,29.90,29.75,0,0,0,0.00
2013-11-28,47.3,39.5,32.2,0.0,0.0,0.0,0,0,100,29.95,29.81,0,0,0,0.00
2013-11-29,48.4,44.2,42.5,0.0,0.0,0.0,0,0,100,30.08,29.95,0,0,0,0.00
2013-11-30,45.0,43.6,42.5,0.0,0.0,0.0,0,0,100,30.08,29.85,0,0,0,0.00
2013-12-1,49.1,45.3,40.3,0.0,0.0,0.0,0,0,100,29.85,29.51,0,0,0,0.00
2013-12-2,40.7,37.3,31.0,0.0,0.0,0.0,0,0,100,29.89,29.56,0,0,0,0.00
2013-12-3,36.2,29.1,24.8,0.0,0.0,0.0,0,0,100,30.12,29.89,0,0,0,0.00
2013-12-4,34.2,26.0,22.1,0.0,0.0,0.0,0,0,100,30.15,30.09,0,0,0,0.00
2013-12-5,32.0,26.1,20.9,0.0,0.0,0.0,0,0,100,30.12,29.99,0,0,0,0.00
2013-12-6,27.5,21.9,16.9,0.0,0.0,0.0,0,0,100,30.11,29.98,0,0,0,0.00
2013-12-7,25.9,17.3,12.2,0.0,0.0,0.0,0,0,100,30.22,30.08,0,0,0,0.00
2013-12-8,31.1,22.0,14.0,0.0,0.0,0.0,0,0,100,30.35,30.20,0,0,0,0.00
2013-12-9,32.2,27.6,18.2,0.0,0.0,0.0,0,0,100,30.36,30.25,0,0,0,0.00
2013-12-10,35.8,32.7,30.6,0.0,0.0,0.0,0,0,100,30.27,30.20,0,0,0,0.00
2013-12-11,40.3,33.8,30.6,0.0,0.0,0.0,0,0,100,30.21,29.95,0,0,0,0.00
2013-12-12,45.2,35.1,29.7,0.0,0.0,0.0,0,0,100,29.95,29.78,0,0,0,0.00
2013-12-13,41.8,38.2,36.4,0.0,0.0,0.0,0,0,100,30.21,29.91,0,0,0,0.00
2013-12-14,42.5,39.5,37.3,0.0,0.0,0.0,0,0,100,30.22,30.09,0,0,0,0.00
2013-12-15,45.9,42.4,36.9,0.0,0.0,0.0,0,0,100,30.23,30.08,0,0,0,0.00
2013-12-16,44.6,36.6,32.4,0.0,0.0,0.0,0,0,100,30.28,30.05,0,0,0,0.00
2013-12-17,41.8,35.9,31.3,0.0,0.0,0.0,0,0,100,30.05,29.87,0,0,0,0.00
2013-12-18,42.8,38.1,29.2,0.0,0.0,0.0,0,0,100,29.98,29.81,0,0,0,0.00
2013-12-19,34.2,30.2,25.9,0.0,0.0,0.0,0,0,100,30.14,29.97,0,0,0,0.00
2013-12-20,34.2,32.7,31.0,0.0,0.0,0.0,0,0,100,29.97,29.47,0,0,0,0.00
2013-12-21,36.4,34.3,33.1,0.0,0.0,0.0,0,0,100,29.95,29.64,0,0,0,0.00
2013-12-22,38.0,36.2,34.2,0.0,0.0,0.0,0,0,100,30.07,29.94,0,0,0,0.00
2013-12-23,46.3,42.7,37.8,0.0,0.0,0.0,0,0,100,30.26,29.87,0,0,0,0.00
2013-12-24,43.7,40.1,32.9,0.0,0.0,0.0,0,0,100,30.37,30.26,0,0,0,0.00
2013-12-25,40.0,35.6,30.6,0.0,0.0,0.0,0,0,100,30.31,30.13,0,0,0,0.00
2013-12-26,45.7,40.4,38.0,0.0,0.0,0.0,0,0,100,30.15,29.95,0,0,0,0.00
2013-12-27,43.6,39.8,35.1,0.0,0.0,0.0,0,0,100,30.08,29.82,0,0,0,0.00
2013-12-28,44.5,41.3,37.6,0.0,0.0,0.0,0,0,100,30.25,30.08,0,0,0,0.00
2013-12-29,41.4,38.9,35.8,0.0,0.0,0.0,0,0,100,30.21,30.05,0,0,0,0.00
2013-12-30,44.3,41.1,38.2,0.0,0.0,0.0,0,0,100,30.05,29.82,0,0,0,0.00
2013-12-31,44.6,42.8,41.6,0.0,0.0,0.0,0,0,100,30.12,29.91,0,0,0,0.00
2014-1-1,44.3,41.1,37.6,0.0,0.0,0.0,0,0,100,30.14,29.98,0,0,0,0.00
2014-1-2,46.3,43.2,41.4,0.0,0.0,0.0,0,0,100,29.98,29.58,0,0,0,0.00